sensor_id;sensor_type;location;lat;lon;timestamp;P1;durP1;ratioP1;P2;durP2;ratioP2
21181;SDS011;10749;46.296;7.524;2023-05-07T00:01:00;2.45;;;1.48;;
21181;SDS011;10749;46.296;7.524;2023-05-07T00:03:25;5.57;;;1.80;;
21181;SDS011;10749;46.296;7.524;2023-05-07T00:05:51;2.97;;;1.38;;
21181;SDS011;10749;46.296;7.524;2023-05-07T00:08:17;3.20;;;1.75;;
21181;SDS011;10749;46.296;7.524;2023-05-07T00:10:43;3.03;;;1.60;;
21181;SDS011;10749;46.296;7.524;2023-05-07T00:13:09;3.53;;;1.40;;
21181;SDS011;10749;46.296;7.524;2023-05-07T00:15:34;2.20;;;1.40;;
21181;SDS011;10749;46.296;7.524;2023-05-07T00:17:59;2.45;;;1.50;;
21181;SDS011;10749;46.296;7.524;2023-05-07T00:20:25;1.77;;;1.33;;
21181;SDS011;10749;46.296;7.524;2023-05-07T00:22:50;2.10;;;1.45;;
21181;SDS011;10749;46.296;7.524;2023-05-07T00:25:15;3.92;;;1.40;;
21181;SDS011;10749;46.296;7.524;2023-05-07T00:27:41;2.50;;;1.80;;
21181;SDS011;10749;46.296;7.524;2023-05-07T00:30:06;2.33;;;1.30;;
21181;SDS011;10749;46.296;7.524;2023-05-07T00:32:32;1.67;;;1.40;;
21181;SDS011;10749;46.296;7.524;2023-05-07T00:34:57;3.22;;;1.40;;
21181;SDS011;10749;46.296;7.524;2023-05-07T00:37:23;2.42;;;1.25;;
21181;SDS011;10749;46.296;7.524;2023-05-07T00:39:48;3.30;;;1.40;;
21181;SDS011;10749;46.296;7.524;2023-05-07T00:42:14;3.42;;;1.17;;
21181;SDS011;10749;46.296;7.524;2023-05-07T00:44:41;2.75;;;1.30;;
21181;SDS011;10749;46.296;7.524;2023-05-07T00:47:06;4.40;;;1.40;;
21181;SDS011;10749;46.296;7.524;2023-05-07T00:49:39;2.28;;;1.35;;
21181;SDS011;10749;46.296;7.524;2023-05-07T00:52:07;2.00;;;1.35;;
21181;SDS011;10749;46.296;7.524;2023-05-07T00:54:34;3.22;;;1.10;;
21181;SDS011;10749;46.296;7.524;2023-05-07T00:57:01;3.47;;;1.05;;
21181;SDS011;10749;46.296;7.524;2023-05-07T00:59:28;2.65;;;0.90;;
21181;SDS011;10749;46.296;7.524;2023-05-07T01:01:53;3.20;;;1.10;;
21181;SDS011;10749;46.296;7.524;2023-05-07T01:04:19;2.72;;;1.05;;
21181;SDS011;10749;46.296;7.524;2023-05-07T01:06:44;1.52;;;1.00;;
21181;SDS011;10749;46.296;7.524;2023-05-07T01:09:10;1.67;;;0.90;;
21181;SDS011;10749;46.296;7.524;2023-05-07T01:11:37;2.05;;;1.10;;
21181;SDS011;10749;46.296;7.524;2023-05-07T01:14:04;1.65;;;0.85;;
21181;SDS011;10749;46.296;7.524;2023-05-07T01:16:30;3.10;;;1.08;;
21181;SDS011;10749;46.296;7.524;2023-05-07T01:18:56;2.13;;;1.23;;
21181;SDS011;10749;46.296;7.524;2023-05-07T01:21:24;1.58;;;1.00;;
21181;SDS011;10749;46.296;7.524;2023-05-07T01:23:51;2.53;;;1.00;;
21181;SDS011;10749;46.296;7.524;2023-05-07T01:26:17;2.28;;;1.02;;
21181;SDS011;10749;46.296;7.524;2023-05-07T01:28:44;1.33;;;0.88;;
21181;SDS011;10749;46.296;7.524;2023-05-07T01:31:10;2.88;;;1.00;;
21181;SDS011;10749;46.296;7.524;2023-05-07T01:33:38;1.42;;;1.00;;
21181;SDS011;10749;46.296;7.524;2023-05-07T01:36:06;3.47;;;0.90;;
21181;SDS011;10749;46.296;7.524;2023-05-07T01:38:34;1.00;;;0.90;;
21181;SDS011;10749;46.296;7.524;2023-05-07T01:41:01;3.67;;;1.10;;
21181;SDS011;10749;46.296;7.524;2023-05-07T01:43:26;1.92;;;1.10;;
21181;SDS011;10749;46.296;7.524;2023-05-07T01:45:54;2.78;;;1.10;;
21181;SDS011;10749;46.296;7.524;2023-05-07T01:48:20;2.25;;;1.00;;
21181;SDS011;10749;46.296;7.524;2023-05-07T01:50:46;2.85;;;1.10;;
21181;SDS011;10749;46.296;7.524;2023-05-07T01:53:11;4.03;;;1.00;;
21181;SDS011;10749;46.296;7.524;2023-05-07T01:55:37;3.05;;;1.25;;
21181;SDS011;10749;46.296;7.524;2023-05-07T01:58:02;2.80;;;1.10;;
21181;SDS011;10749;46.296;7.524;2023-05-07T02:00:28;2.25;;;1.13;;
21181;SDS011;10749;46.296;7.524;2023-05-07T02:02:53;1.52;;;1.10;;
21181;SDS011;10749;46.296;7.524;2023-05-07T02:05:19;3.53;;;1.60;;
21181;SDS011;10749;46.296;7.524;2023-05-07T02:07:44;1.60;;;1.00;;
21181;SDS011;10749;46.296;7.524;2023-05-07T02:10:09;2.55;;;1.10;;
21181;SDS011;10749;46.296;7.524;2023-05-07T02:12:35;2.90;;;1.25;;
21181;SDS011;10749;46.296;7.524;2023-05-07T02:15:00;2.33;;;1.05;;
21181;SDS011;10749;46.296;7.524;2023-05-07T02:17:25;1.85;;;1.10;;
21181;SDS011;10749;46.296;7.524;2023-05-07T02:19:51;1.30;;;1.20;;
21181;SDS011;10749;46.296;7.524;2023-05-07T02:22:16;1.85;;;1.10;;
21181;SDS011;10749;46.296;7.524;2023-05-07T02:24:41;2.97;;;0.80;;
21181;SDS011;10749;46.296;7.524;2023-05-07T02:27:06;2.45;;;1.10;;
21181;SDS011;10749;46.296;7.524;2023-05-07T02:29:32;1.70;;;1.10;;
21181;SDS011;10749;46.296;7.524;2023-05-07T02:31:57;1.52;;;1.10;;
21181;SDS011;10749;46.296;7.524;2023-05-07T02:34:22;1.77;;;1.20;;
21181;SDS011;10749;46.296;7.524;2023-05-07T02:36:48;3.03;;;0.93;;
21181;SDS011;10749;46.296;7.524;2023-05-07T02:39:13;2.50;;;0.80;;
21181;SDS011;10749;46.296;7.524;2023-05-07T02:41:38;2.25;;;0.90;;
21181;SDS011;10749;46.296;7.524;2023-05-07T02:44:04;1.75;;;1.02;;
21181;SDS011;10749;46.296;7.524;2023-05-07T02:46:29;2.10;;;1.00;;
21181;SDS011;10749;46.296;7.524;2023-05-07T02:48:55;2.33;;;1.10;;
21181;SDS011;10749;46.296;7.524;2023-05-07T02:51:20;1.35;;;1.02;;
21181;SDS011;10749;46.296;7.524;2023-05-07T02:53:46;2.22;;;1.17;;
21181;SDS011;10749;46.296;7.524;2023-05-07T02:56:12;1.58;;;0.98;;
21181;SDS011;10749;46.296;7.524;2023-05-07T02:58:37;1.50;;;1.00;;
21181;SDS011;10749;46.296;7.524;2023-05-07T03:01:04;2.58;;;1.15;;
21181;SDS011;10749;46.296;7.524;2023-05-07T03:03:30;2.60;;;1.20;;
21181;SDS011;10749;46.296;7.524;2023-05-07T03:05:55;2.55;;;1.20;;
21181;SDS011;10749;46.296;7.524;2023-05-07T03:08:21;1.73;;;0.95;;
21181;SDS011;10749;46.296;7.524;2023-05-07T03:10:46;1.60;;;1.30;;
21181;SDS011;10749;46.296;7.524;2023-05-07T03:13:12;1.15;;;0.90;;
21181;SDS011;10749;46.296;7.524;2023-05-07T03:15:37;2.85;;;1.17;;
21181;SDS011;10749;46.296;7.524;2023-05-07T03:18:02;2.33;;;0.95;;
21181;SDS011;10749;46.296;7.524;2023-05-07T03:20:28;1.30;;;1.10;;
21181;SDS011;10749;46.296;7.524;2023-05-07T03:22:53;4.20;;;1.00;;
21181;SDS011;10749;46.296;7.524;2023-05-07T03:25:18;2.38;;;0.75;;
21181;SDS011;10749;46.296;7.524;2023-05-07T03:27:44;1.42;;;1.20;;
21181;SDS011;10749;46.296;7.524;2023-05-07T03:30:09;1.52;;;1.17;;
21181;SDS011;10749;46.296;7.524;2023-05-07T03:32:35;1.48;;;0.80;;
21181;SDS011;10749;46.296;7.524;2023-05-07T03:35:01;1.50;;;1.05;;
21181;SDS011;10749;46.296;7.524;2023-05-07T03:37:27;3.20;;;1.00;;
21181;SDS011;10749;46.296;7.524;2023-05-07T03:39:52;1.30;;;1.00;;
21181;SDS011;10749;46.296;7.524;2023-05-07T03:42:17;2.92;;;1.20;;
21181;SDS011;10749;46.296;7.524;2023-05-07T03:44:43;3.03;;;1.30;;
21181;SDS011;10749;46.296;7.524;2023-05-07T03:47:08;1.92;;;1.23;;
21181;SDS011;10749;46.296;7.524;2023-05-07T03:49:35;2.35;;;1.02;;
21181;SDS011;10749;46.296;7.524;2023-05-07T03:52:00;1.25;;;1.00;;
21181;SDS011;10749;46.296;7.524;2023-05-07T03:54:25;4.22;;;1.13;;
21181;SDS011;10749;46.296;7.524;2023-05-07T03:56:50;3.05;;;1.23;;
21181;SDS011;10749;46.296;7.524;2023-05-07T03:59:16;2.00;;;0.98;;
21181;SDS011;10749;46.296;7.524;2023-05-07T04:01:41;2.53;;;1.25;;
21181;SDS011;10749;46.296;7.524;2023-05-07T04:04:06;1.95;;;1.42;;
21181;SDS011;10749;46.296;7.524;2023-05-07T04:06:32;1.58;;;1.10;;
21181;SDS011;10749;46.296;7.524;2023-05-07T04:08:57;2.38;;;1.33;;
21181;SDS011;10749;46.296;7.524;2023-05-07T04:11:22;2.95;;;1.08;;
21181;SDS011;10749;46.296;7.524;2023-05-07T04:13:48;1.50;;;1.27;;
21181;SDS011;10749;46.296;7.524;2023-05-07T04:16:13;6.45;;;1.35;;
21181;SDS011;10749;46.296;7.524;2023-05-07T04:18:38;3.53;;;1.55;;
21181;SDS011;10749;46.296;7.524;2023-05-07T04:21:04;2.65;;;1.33;;
21181;SDS011;10749;46.296;7.524;2023-05-07T04:23:29;3.22;;;1.52;;
21181;SDS011;10749;46.296;7.524;2023-05-07T04:25:54;4.80;;;1.50;;
21181;SDS011;10749;46.296;7.524;2023-05-07T04:28:20;2.78;;;1.42;;
21181;SDS011;10749;46.296;7.524;2023-05-07T04:30:45;4.43;;;1.50;;
21181;SDS011;10749;46.296;7.524;2023-05-07T04:33:10;3.05;;;1.10;;
21181;SDS011;10749;46.296;7.524;2023-05-07T04:35:36;1.58;;;1.05;;
21181;SDS011;10749;46.296;7.524;2023-05-07T04:38:02;2.25;;;1.13;;
21181;SDS011;10749;46.296;7.524;2023-05-07T04:40:27;2.67;;;1.27;;
21181;SDS011;10749;46.296;7.524;2023-05-07T04:42:52;2.50;;;1.30;;
21181;SDS011;10749;46.296;7.524;2023-05-07T04:45:18;2.05;;;1.20;;
21181;SDS011;10749;46.296;7.524;2023-05-07T04:47:43;3.60;;;1.48;;
21181;SDS011;10749;46.296;7.524;2023-05-07T04:50:09;2.05;;;1.20;;
21181;SDS011;10749;46.296;7.524;2023-05-07T04:52:35;2.80;;;1.27;;
21181;SDS011;10749;46.296;7.524;2023-05-07T04:55:01;4.97;;;1.60;;
21181;SDS011;10749;46.296;7.524;2023-05-07T04:57:26;4.10;;;1.60;;
21181;SDS011;10749;46.296;7.524;2023-05-07T04:59:52;4.80;;;1.30;;
21181;SDS011;10749;46.296;7.524;2023-05-07T05:02:18;5.22;;;1.75;;
21181;SDS011;10749;46.296;7.524;2023-05-07T05:04:43;2.70;;;1.40;;
21181;SDS011;10749;46.296;7.524;2023-05-07T05:07:08;3.03;;;1.30;;
21181;SDS011;10749;46.296;7.524;2023-05-07T05:09:34;2.45;;;1.30;;
21181;SDS011;10749;46.296;7.524;2023-05-07T05:11:59;1.70;;;1.38;;
21181;SDS011;10749;46.296;7.524;2023-05-07T05:14:24;2.35;;;1.48;;
21181;SDS011;10749;46.296;7.524;2023-05-07T05:16:50;1.70;;;1.40;;
21181;SDS011;10749;46.296;7.524;2023-05-07T05:19:15;2.17;;;1.38;;
21181;SDS011;10749;46.296;7.524;2023-05-07T05:21:40;4.13;;;1.50;;
21181;SDS011;10749;46.296;7.524;2023-05-07T05:24:06;1.90;;;1.45;;
21181;SDS011;10749;46.296;7.524;2023-05-07T05:26:31;1.88;;;1.55;;
21181;SDS011;10749;46.296;7.524;2023-05-07T05:28:56;2.38;;;1.50;;
21181;SDS011;10749;46.296;7.524;2023-05-07T05:31:22;3.90;;;1.52;;
21181;SDS011;10749;46.296;7.524;2023-05-07T05:33:47;3.88;;;1.40;;
21181;SDS011;10749;46.296;7.524;2023-05-07T05:36:12;3.47;;;1.55;;
21181;SDS011;10749;46.296;7.524;2023-05-07T05:38:38;3.50;;;1.83;;
21181;SDS011;10749;46.296;7.524;2023-05-07T05:41:04;3.85;;;2.00;;
21181;SDS011;10749;46.296;7.524;2023-05-07T05:43:29;3.58;;;1.73;;
21181;SDS011;10749;46.296;7.524;2023-05-07T05:45:55;2.58;;;1.60;;
21181;SDS011;10749;46.296;7.524;2023-05-07T05:48:20;2.47;;;1.60;;
21181;SDS011;10749;46.296;7.524;2023-05-07T05:50:46;3.65;;;1.83;;
21181;SDS011;10749;46.296;7.524;2023-05-07T05:53:11;1.98;;;1.50;;
21181;SDS011;10749;46.296;7.524;2023-05-07T05:55:36;2.83;;;1.67;;
21181;SDS011;10749;46.296;7.524;2023-05-07T05:58:02;2.42;;;1.55;;
21181;SDS011;10749;46.296;7.524;2023-05-07T06:00:28;3.28;;;1.60;;
21181;SDS011;10749;46.296;7.524;2023-05-07T06:02:54;3.85;;;1.52;;
21181;SDS011;10749;46.296;7.524;2023-05-07T06:05:19;3.45;;;2.30;;
21181;SDS011;10749;46.296;7.524;2023-05-07T06:07:44;4.07;;;2.03;;
21181;SDS011;10749;46.296;7.524;2023-05-07T06:10:10;5.25;;;2.30;;
21181;SDS011;10749;46.296;7.524;2023-05-07T06:12:35;5.78;;;2.10;;
21181;SDS011;10749;46.296;7.524;2023-05-07T06:15:00;4.85;;;2.08;;
21181;SDS011;10749;46.296;7.524;2023-05-07T06:17:26;4.15;;;2.13;;
21181;SDS011;10749;46.296;7.524;2023-05-07T06:19:52;5.57;;;2.40;;
21181;SDS011;10749;46.296;7.524;2023-05-07T06:22:17;3.97;;;2.00;;
21181;SDS011;10749;46.296;7.524;2023-05-07T06:24:42;5.25;;;1.98;;
21181;SDS011;10749;46.296;7.524;2023-05-07T06:27:08;3.88;;;2.20;;
21181;SDS011;10749;46.296;7.524;2023-05-07T06:29:33;4.47;;;2.45;;
21181;SDS011;10749;46.296;7.524;2023-05-07T06:32:11;4.85;;;1.90;;
21181;SDS011;10749;46.296;7.524;2023-05-07T06:34:38;4.95;;;2.25;;
21181;SDS011;10749;46.296;7.524;2023-05-07T06:37:04;5.95;;;2.35;;
21181;SDS011;10749;46.296;7.524;2023-05-07T06:39:29;4.63;;;2.17;;
21181;SDS011;10749;46.296;7.524;2023-05-07T06:41:55;8.02;;;2.55;;
21181;SDS011;10749;46.296;7.524;2023-05-07T06:44:20;5.55;;;2.28;;
21181;SDS011;10749;46.296;7.524;2023-05-07T06:46:45;5.13;;;2.47;;
21181;SDS011;10749;46.296;7.524;2023-05-07T06:49:14;4.15;;;1.92;;
21181;SDS011;10749;46.296;7.524;2023-05-07T06:51:39;4.25;;;2.00;;
21181;SDS011;10749;46.296;7.524;2023-05-07T06:54:05;6.78;;;2.17;;
21181;SDS011;10749;46.296;7.524;2023-05-07T06:56:31;3.33;;;2.40;;
21181;SDS011;10749;46.296;7.524;2023-05-07T06:58:56;5.00;;;2.50;;
21181;SDS011;10749;46.296;7.524;2023-05-07T07:01:22;4.72;;;2.20;;
21181;SDS011;10749;46.296;7.524;2023-05-07T07:03:47;5.88;;;2.50;;
21181;SDS011;10749;46.296;7.524;2023-05-07T07:06:12;5.80;;;2.72;;
21181;SDS011;10749;46.296;7.524;2023-05-07T07:08:38;6.45;;;2.97;;
21181;SDS011;10749;46.296;7.524;2023-05-07T07:11:03;4.30;;;2.55;;
21181;SDS011;10749;46.296;7.524;2023-05-07T07:13:29;5.93;;;2.30;;
21181;SDS011;10749;46.296;7.524;2023-05-07T07:15:54;7.65;;;2.70;;
21181;SDS011;10749;46.296;7.524;2023-05-07T07:18:20;6.53;;;2.90;;
21181;SDS011;10749;46.296;7.524;2023-05-07T07:20:45;5.07;;;2.97;;
21181;SDS011;10749;46.296;7.524;2023-05-07T07:23:10;6.60;;;2.75;;
21181;SDS011;10749;46.296;7.524;2023-05-07T07:25:36;4.55;;;2.40;;
21181;SDS011;10749;46.296;7.524;2023-05-07T07:28:01;5.80;;;2.25;;
21181;SDS011;10749;46.296;7.524;2023-05-07T07:30:27;5.07;;;1.83;;
21181;SDS011;10749;46.296;7.524;2023-05-07T07:32:52;4.80;;;2.10;;
21181;SDS011;10749;46.296;7.524;2023-05-07T07:35:18;4.93;;;2.38;;
21181;SDS011;10749;46.296;7.524;2023-05-07T07:37:43;5.20;;;2.50;;
21181;SDS011;10749;46.296;7.524;2023-05-07T07:40:09;3.20;;;2.00;;
21181;SDS011;10749;46.296;7.524;2023-05-07T07:42:34;2.88;;;2.03;;
21181;SDS011;10749;46.296;7.524;2023-05-07T07:45:00;5.05;;;1.90;;
21181;SDS011;10749;46.296;7.524;2023-05-07T07:47:25;4.75;;;2.20;;
21181;SDS011;10749;46.296;7.524;2023-05-07T07:49:50;5.95;;;2.63;;
21181;SDS011;10749;46.296;7.524;2023-05-07T07:52:16;3.80;;;2.28;;
21181;SDS011;10749;46.296;7.524;2023-05-07T07:54:41;6.93;;;2.20;;
21181;SDS011;10749;46.296;7.524;2023-05-07T07:57:06;5.88;;;2.17;;
21181;SDS011;10749;46.296;7.524;2023-05-07T07:59:32;3.70;;;2.00;;
21181;SDS011;10749;46.296;7.524;2023-05-07T08:01:57;3.72;;;1.80;;
21181;SDS011;10749;46.296;7.524;2023-05-07T08:04:22;2.25;;;1.90;;
21181;SDS011;10749;46.296;7.524;2023-05-07T08:06:48;3.92;;;1.90;;
21181;SDS011;10749;46.296;7.524;2023-05-07T08:09:13;3.55;;;1.98;;
21181;SDS011;10749;46.296;7.524;2023-05-07T08:11:39;3.67;;;1.90;;
21181;SDS011;10749;46.296;7.524;2023-05-07T08:14:04;1.98;;;1.40;;
21181;SDS011;10749;46.296;7.524;2023-05-07T08:16:30;5.28;;;1.98;;
21181;SDS011;10749;46.296;7.524;2023-05-07T08:18:55;3.83;;;1.90;;
21181;SDS011;10749;46.296;7.524;2023-05-07T08:21:21;3.20;;;1.67;;
21181;SDS011;10749;46.296;7.524;2023-05-07T08:23:47;3.08;;;1.65;;
21181;SDS011;10749;46.296;7.524;2023-05-07T08:26:12;8.68;;;1.90;;
21181;SDS011;10749;46.296;7.524;2023-05-07T08:28:37;5.25;;;1.63;;
21181;SDS011;10749;46.296;7.524;2023-05-07T08:31:03;2.28;;;1.73;;
21181;SDS011;10749;46.296;7.524;2023-05-07T08:33:28;5.22;;;1.75;;
21181;SDS011;10749;46.296;7.524;2023-05-07T08:35:54;3.05;;;1.90;;
21181;SDS011;10749;46.296;7.524;2023-05-07T08:38:19;2.97;;;1.60;;
21181;SDS011;10749;46.296;7.524;2023-05-07T08:40:44;4.13;;;1.58;;
21181;SDS011;10749;46.296;7.524;2023-05-07T08:43:12;3.00;;;1.90;;
21181;SDS011;10749;46.296;7.524;2023-05-07T08:45:39;3.30;;;1.50;;
21181;SDS011;10749;46.296;7.524;2023-05-07T08:48:08;3.55;;;1.48;;
21181;SDS011;10749;46.296;7.524;2023-05-07T08:50:39;2.80;;;1.60;;
21181;SDS011;10749;46.296;7.524;2023-05-07T08:53:04;3.17;;;1.80;;
21181;SDS011;10749;46.296;7.524;2023-05-07T08:55:30;4.57;;;1.67;;
21181;SDS011;10749;46.296;7.524;2023-05-07T08:57:55;3.63;;;1.85;;
21181;SDS011;10749;46.296;7.524;2023-05-07T09:00:21;3.28;;;1.90;;
21181;SDS011;10749;46.296;7.524;2023-05-07T09:02:46;4.03;;;1.70;;
21181;SDS011;10749;46.296;7.524;2023-05-07T09:05:12;4.15;;;1.90;;
21181;SDS011;10749;46.296;7.524;2023-05-07T09:07:37;2.60;;;1.75;;
21181;SDS011;10749;46.296;7.524;2023-05-07T09:10:03;3.55;;;1.70;;
21181;SDS011;10749;46.296;7.524;2023-05-07T09:12:29;3.17;;;1.70;;
21181;SDS011;10749;46.296;7.524;2023-05-07T09:14:54;4.97;;;1.77;;
21181;SDS011;10749;46.296;7.524;2023-05-07T09:17:20;2.25;;;1.38;;
21181;SDS011;10749;46.296;7.524;2023-05-07T09:19:45;4.25;;;1.77;;
21181;SDS011;10749;46.296;7.524;2023-05-07T09:22:11;2.40;;;1.70;;
21181;SDS011;10749;46.296;7.524;2023-05-07T09:24:37;2.67;;;1.55;;
21181;SDS011;10749;46.296;7.524;2023-05-07T09:27:03;3.35;;;1.40;;
21181;SDS011;10749;46.296;7.524;2023-05-07T09:29:29;2.38;;;1.45;;
21181;SDS011;10749;46.296;7.524;2023-05-07T09:32:00;2.75;;;1.55;;
21181;SDS011;10749;46.296;7.524;2023-05-07T09:34:31;3.60;;;2.00;;
21181;SDS011;10749;46.296;7.524;2023-05-07T09:37:03;4.05;;;1.80;;
21181;SDS011;10749;46.296;7.524;2023-05-07T09:39:39;2.70;;;1.77;;
21181;SDS011;10749;46.296;7.524;2023-05-07T09:42:05;4.20;;;1.80;;
21181;SDS011;10749;46.296;7.524;2023-05-07T09:44:31;3.20;;;2.00;;
21181;SDS011;10749;46.296;7.524;2023-05-07T09:46:57;2.47;;;1.73;;
21181;SDS011;10749;46.296;7.524;2023-05-07T09:49:25;4.82;;;1.92;;
21181;SDS011;10749;46.296;7.524;2023-05-07T09:51:57;4.35;;;1.83;;
21181;SDS011;10749;46.296;7.524;2023-05-07T09:54:24;2.17;;;1.70;;
21181;SDS011;10749;46.296;7.524;2023-05-07T09:56:51;4.53;;;1.83;;
21181;SDS011;10749;46.296;7.524;2023-05-07T09:59:17;3.95;;;1.88;;
21181;SDS011;10749;46.296;7.524;2023-05-07T10:01:45;4.22;;;1.90;;
21181;SDS011;10749;46.296;7.524;2023-05-07T10:04:10;3.13;;;1.80;;
21181;SDS011;10749;46.296;7.524;2023-05-07T10:06:37;1.60;;;1.40;;
21181;SDS011;10749;46.296;7.524;2023-05-07T10:09:03;2.40;;;1.80;;
21181;SDS011;10749;46.296;7.524;2023-05-07T10:11:32;3.63;;;2.00;;
21181;SDS011;10749;46.296;7.524;2023-05-07T10:13:58;4.35;;;1.42;;
21181;SDS011;10749;46.296;7.524;2023-05-07T10:16:24;3.97;;;1.98;;
21181;SDS011;10749;46.296;7.524;2023-05-07T10:18:51;2.83;;;1.65;;
21181;SDS011;10749;46.296;7.524;2023-05-07T10:21:17;4.53;;;2.08;;
21181;SDS011;10749;46.296;7.524;2023-05-07T10:23:45;3.50;;;2.10;;
21181;SDS011;10749;46.296;7.524;2023-05-07T10:26:14;2.20;;;1.30;;
21181;SDS011;10749;46.296;7.524;2023-05-07T10:28:43;3.13;;;1.63;;
21181;SDS011;10749;46.296;7.524;2023-05-07T10:34:07;3.75;;;2.00;;
21181;SDS011;10749;46.296;7.524;2023-05-07T10:36:36;2.20;;;1.48;;
21181;SDS011;10749;46.296;7.524;2023-05-07T10:39:01;2.35;;;1.60;;
21181;SDS011;10749;46.296;7.524;2023-05-07T10:41:27;2.05;;;1.40;;
21181;SDS011;10749;46.296;7.524;2023-05-07T10:43:53;3.03;;;1.40;;
21181;SDS011;10749;46.296;7.524;2023-05-07T10:46:18;1.60;;;1.20;;
21181;SDS011;10749;46.296;7.524;2023-05-07T10:51:25;2.78;;;1.45;;
21181;SDS011;10749;46.296;7.524;2023-05-07T10:56:35;3.55;;;1.50;;
21181;SDS011;10749;46.296;7.524;2023-05-07T11:01:52;1.40;;;1.10;;
21181;SDS011;10749;46.296;7.524;2023-05-07T11:04:18;2.55;;;1.30;;
21181;SDS011;10749;46.296;7.524;2023-05-07T11:15:00;2.70;;;1.70;;
21181;SDS011;10749;46.296;7.524;2023-05-07T11:17:26;2.97;;;1.77;;
21181;SDS011;10749;46.296;7.524;2023-05-07T11:19:55;3.05;;;1.73;;
21181;SDS011;10749;46.296;7.524;2023-05-07T11:22:39;3.75;;;1.60;;
21181;SDS011;10749;46.296;7.524;2023-05-07T11:25:07;1.92;;;1.35;;
21181;SDS011;10749;46.296;7.524;2023-05-07T11:27:32;5.15;;;1.70;;
21181;SDS011;10749;46.296;7.524;2023-05-07T11:29:58;2.50;;;1.35;;
21181;SDS011;10749;46.296;7.524;2023-05-07T11:32:26;1.58;;;1.30;;
21181;SDS011;10749;46.296;7.524;2023-05-07T11:34:56;3.28;;;1.52;;
21181;SDS011;10749;46.296;7.524;2023-05-07T11:37:23;2.28;;;1.50;;
21181;SDS011;10749;46.296;7.524;2023-05-07T11:39:49;4.90;;;1.50;;
21181;SDS011;10749;46.296;7.524;2023-05-07T11:44:56;5.22;;;1.42;;
21181;SDS011;10749;46.296;7.524;2023-05-07T11:47:22;1.58;;;1.38;;
21181;SDS011;10749;46.296;7.524;2023-05-07T11:49:48;2.45;;;1.30;;
21181;SDS011;10749;46.296;7.524;2023-05-07T11:52:15;1.75;;;1.33;;
21181;SDS011;10749;46.296;7.524;2023-05-07T11:54:54;3.75;;;1.40;;
21181;SDS011;10749;46.296;7.524;2023-05-07T11:57:21;2.03;;;1.20;;
21181;SDS011;10749;46.296;7.524;2023-05-07T11:59:47;1.50;;;1.40;;
21181;SDS011;10749;46.296;7.524;2023-05-07T12:02:13;5.80;;;1.33;;
21181;SDS011;10749;46.296;7.524;2023-05-07T12:04:40;4.03;;;1.38;;
21181;SDS011;10749;46.296;7.524;2023-05-07T12:07:10;2.83;;;1.52;;
21181;SDS011;10749;46.296;7.524;2023-05-07T12:09:38;2.88;;;1.33;;
21181;SDS011;10749;46.296;7.524;2023-05-07T12:12:04;3.92;;;1.60;;
21181;SDS011;10749;46.296;7.524;2023-05-07T12:14:29;3.47;;;1.73;;
21181;SDS011;10749;46.296;7.524;2023-05-07T12:16:55;2.97;;;1.50;;
21181;SDS011;10749;46.296;7.524;2023-05-07T12:19:20;3.92;;;1.58;;
21181;SDS011;10749;46.296;7.524;2023-05-07T12:21:46;4.10;;;1.63;;
21181;SDS011;10749;46.296;7.524;2023-05-07T12:24:11;2.35;;;1.45;;
21181;SDS011;10749;46.296;7.524;2023-05-07T12:26:37;3.10;;;1.70;;
21181;SDS011;10749;46.296;7.524;2023-05-07T12:29:03;3.25;;;1.67;;
21181;SDS011;10749;46.296;7.524;2023-05-07T12:31:28;3.30;;;1.50;;
21181;SDS011;10749;46.296;7.524;2023-05-07T12:33:54;2.20;;;1.63;;
21181;SDS011;10749;46.296;7.524;2023-05-07T12:36:19;4.45;;;1.98;;
21181;SDS011;10749;46.296;7.524;2023-05-07T12:38:46;3.15;;;1.75;;
21181;SDS011;10749;46.296;7.524;2023-05-07T12:41:19;3.90;;;1.70;;
21181;SDS011;10749;46.296;7.524;2023-05-07T12:43:50;4.55;;;2.08;;
21181;SDS011;10749;46.296;7.524;2023-05-07T12:46:21;2.55;;;1.80;;
21181;SDS011;10749;46.296;7.524;2023-05-07T12:48:48;3.45;;;1.58;;
21181;SDS011;10749;46.296;7.524;2023-05-07T12:51:13;4.85;;;1.50;;
21181;SDS011;10749;46.296;7.524;2023-05-07T12:53:40;4.28;;;2.08;;
21181;SDS011;10749;46.296;7.524;2023-05-07T12:56:09;3.38;;;1.95;;
21181;SDS011;10749;46.296;7.524;2023-05-07T12:58:35;3.05;;;1.92;;
21181;SDS011;10749;46.296;7.524;2023-05-07T13:01:03;3.35;;;2.00;;
21181;SDS011;10749;46.296;7.524;2023-05-07T13:03:31;3.55;;;2.10;;
21181;SDS011;10749;46.296;7.524;2023-05-07T13:06:01;3.30;;;2.10;;
21181;SDS011;10749;46.296;7.524;2023-05-07T13:08:37;2.58;;;1.85;;
21181;SDS011;10749;46.296;7.524;2023-05-07T13:11:06;3.20;;;2.35;;
21181;SDS011;10749;46.296;7.524;2023-05-07T13:13:33;2.78;;;1.83;;
21181;SDS011;10749;46.296;7.524;2023-05-07T13:16:00;4.35;;;1.98;;
21181;SDS011;10749;46.296;7.524;2023-05-07T13:18:28;2.58;;;1.95;;
21181;SDS011;10749;46.296;7.524;2023-05-07T13:20:55;5.22;;;1.75;;
21181;SDS011;10749;46.296;7.524;2023-05-07T13:23:20;1.67;;;1.55;;
21181;SDS011;10749;46.296;7.524;2023-05-07T13:25:46;1.90;;;1.70;;
21181;SDS011;10749;46.296;7.524;2023-05-07T13:28:11;2.83;;;1.70;;
21181;SDS011;10749;46.296;7.524;2023-05-07T13:30:37;3.35;;;1.52;;
21181;SDS011;10749;46.296;7.524;2023-05-07T13:33:02;3.40;;;1.77;;
21181;SDS011;10749;46.296;7.524;2023-05-07T13:35:28;2.15;;;1.63;;
21181;SDS011;10749;46.296;7.524;2023-05-07T13:37:53;2.20;;;1.90;;
21181;SDS011;10749;46.296;7.524;2023-05-07T13:40:20;7.28;;;1.70;;
21181;SDS011;10749;46.296;7.524;2023-05-07T13:42:50;3.08;;;1.60;;
21181;SDS011;10749;46.296;7.524;2023-05-07T13:45:15;2.10;;;1.63;;
21181;SDS011;10749;46.296;7.524;2023-05-07T13:47:41;4.60;;;1.77;;
21181;SDS011;10749;46.296;7.524;2023-05-07T13:50:08;2.38;;;1.70;;
21181;SDS011;10749;46.296;7.524;2023-05-07T13:52:34;2.17;;;1.80;;
21181;SDS011;10749;46.296;7.524;2023-05-07T13:54:59;3.45;;;1.85;;
21181;SDS011;10749;46.296;7.524;2023-05-07T13:57:25;2.00;;;1.67;;
21181;SDS011;10749;46.296;7.524;2023-05-07T13:59:50;2.65;;;1.50;;
21181;SDS011;10749;46.296;7.524;2023-05-07T14:02:15;3.25;;;1.48;;
21181;SDS011;10749;46.296;7.524;2023-05-07T14:04:40;2.25;;;1.50;;
21181;SDS011;10749;46.296;7.524;2023-05-07T14:07:06;2.20;;;1.33;;
21181;SDS011;10749;46.296;7.524;2023-05-07T14:09:31;3.88;;;1.40;;
21181;SDS011;10749;46.296;7.524;2023-05-07T14:11:56;2.70;;;1.50;;
21181;SDS011;10749;46.296;7.524;2023-05-07T14:14:22;2.20;;;1.42;;
21181;SDS011;10749;46.296;7.524;2023-05-07T14:16:47;1.95;;;1.50;;
21181;SDS011;10749;46.296;7.524;2023-05-07T14:19:12;1.80;;;1.50;;
21181;SDS011;10749;46.296;7.524;2023-05-07T14:21:37;2.03;;;1.50;;
21181;SDS011;10749;46.296;7.524;2023-05-07T14:24:03;2.90;;;1.30;;
21181;SDS011;10749;46.296;7.524;2023-05-07T14:26:29;1.30;;;1.20;;
21181;SDS011;10749;46.296;7.524;2023-05-07T14:28:55;2.35;;;1.40;;
21181;SDS011;10749;46.296;7.524;2023-05-07T14:31:23;3.95;;;1.65;;
21181;SDS011;10749;46.296;7.524;2023-05-07T14:33:48;1.27;;;1.00;;
21181;SDS011;10749;46.296;7.524;2023-05-07T14:36:15;2.35;;;1.45;;
21181;SDS011;10749;46.296;7.524;2023-05-07T14:38:41;1.40;;;1.30;;
21181;SDS011;10749;46.296;7.524;2023-05-07T14:41:06;1.80;;;1.35;;
21181;SDS011;10749;46.296;7.524;2023-05-07T14:43:31;3.42;;;1.60;;
21181;SDS011;10749;46.296;7.524;2023-05-07T14:45:56;1.90;;;1.40;;
21181;SDS011;10749;46.296;7.524;2023-05-07T14:48:22;2.33;;;1.70;;
21181;SDS011;10749;46.296;7.524;2023-05-07T14:50:47;3.85;;;1.67;;
21181;SDS011;10749;46.296;7.524;2023-05-07T14:53:13;2.80;;;1.70;;
21181;SDS011;10749;46.296;7.524;2023-05-07T14:55:38;1.70;;;1.52;;
21181;SDS011;10749;46.296;7.524;2023-05-07T14:58:04;4.30;;;1.67;;
21181;SDS011;10749;46.296;7.524;2023-05-07T15:00:30;2.47;;;1.77;;
21181;SDS011;10749;46.296;7.524;2023-05-07T15:02:56;4.50;;;1.65;;